Terminal Aerodrome Forecast
Issued by NWS Quad Cities IA IL

Home | Current Version | Previous Version | Text Only | Print | Product List | Glossary On
Versions: 1 2 3 4 5 6 7 8 9 10 11 12 13 14 15 16 17
000
FTUS43 KDVN 201510 AAA
TAFMLI
TAF AMD
KMLI 201510Z 2015/2112 09008KT P6SM -RA OVC050
      TEMPO 2016/2020 06008KT 5SM -RA BR OVC035
     FM202100 05006KT P6SM VCSH OVC050
     FM210000 03005KT P6SM SCT050 OVC120
     FM210800 32003KT P6SM SCT120=

USA.gov is the U.S. government's official web portal to all federal, state and local government web resources and services.